Time,TemperatureF,DewpointF,PressureIn,WindDirection,WindDirectionDegrees,WindSpeedMPH,WindSpeedGustMPH,Humidity,HourlyPrecipIn,Conditions,Clouds,dailyrainin,SolarRadiationWatts/m^2,SoftwareType,DateUTC
2013-07-08 00:11:00,70.0,15.0,-100.00,West,269,6.0,10.0,12,0.00,,,0.00,0.000000,,2013-07-08 07:11:00,
2013-07-08 00:22:00,70.0,15.0,-100.00,West,269,6.0,10.0,12,0.00,,,0.00,0.000000,,2013-07-08 07:22:00,
2013-07-08 00:34:00,70.0,15.0,-100.00,West,269,6.0,10.0,12,0.00,,,0.00,0.000000,,2013-07-08 07:34:00,
2013-07-08 00:44:00,70.0,15.0,-100.00,West,269,6.0,10.0,12,0.00,,,0.00,0.000000,,2013-07-08 07:44:00,
2013-07-08 01:11:00,71.0,16.0,-100.00,West,260,6.0,10.0,12,0.00,,,0.00,0.000000,,2013-07-08 08:11:00,
2013-07-08 01:22:00,71.0,16.0,-100.00,West,260,6.0,10.0,12,0.00,,,0.00,0.000000,,2013-07-08 08:22:00,
2013-07-08 02:11:00,70.0,15.0,-100.00,West,275,6.0,9.0,12,-99.99,,,0.00,0.000000,,2013-07-08 09:11:00,
2013-07-08 02:22:00,70.0,15.0,-100.00,West,275,6.0,9.0,12,-99.99,,,0.00,0.000000,,2013-07-08 09:22:00,
2013-07-08 02:34:00,70.0,15.0,-100.00,West,275,6.0,9.0,12,-99.99,,,0.00,0.000000,,2013-07-08 09:34:00,
2013-07-08 02:43:00,70.0,15.0,-100.00,West,275,6.0,9.0,12,-99.99,,,0.00,0.000000,,2013-07-08 09:43:00,
2013-07-08 02:51:00,69.0,16.0,-100.00,West,261,5.0,10.0,13,-99.99,,,0.00,0.000000,,2013-07-08 09:51:00,
2013-07-08 03:11:00,69.0,16.0,-100.00,West,261,5.0,10.0,13,-99.99,,,0.00,0.000000,,2013-07-08 10:11:00,
2013-07-08 03:22:00,69.0,16.0,-100.00,West,261,5.0,10.0,13,-99.99,,,0.00,0.000000,,2013-07-08 10:22:00,
2013-07-08 03:34:00,69.0,16.0,-100.00,West,261,5.0,10.0,13,-99.99,,,0.00,0.000000,,2013-07-08 10:34:00,
2013-07-08 04:33:00,69.0,21.0,-100.00,SW,236,2.0,7.0,16,-99.99,,,0.00,0.000000,,2013-07-08 11:33:00,
2013-07-08 04:43:00,69.0,21.0,-100.00,SW,236,2.0,7.0,16,-99.99,,,0.00,0.000000,,2013-07-08 11:43:00,
2013-07-08 05:11:00,67.0,19.0,-100.00,West,273,6.0,9.0,16,-99.99,,,0.00,0.000000,,2013-07-08 12:11:00,
2013-07-08 05:22:00,67.0,19.0,-100.00,West,273,6.0,9.0,16,-99.99,,,0.00,0.000000,,2013-07-08 12:22:00,
2013-07-08 05:33:00,67.0,19.0,-100.00,West,273,6.0,9.0,16,-99.99,,,0.00,0.000000,,2013-07-08 12:33:00,
2013-07-08 05:43:00,67.0,19.0,-100.00,West,273,6.0,9.0,16,-99.99,,,0.00,0.000000,,2013-07-08 12:43:00,
2013-07-08 05:51:00,68.0,19.0,-100.00,WSW,255,4.0,8.0,15,-99.99,,,0.00,1.000000,,2013-07-08 12:51:00,
2013-07-08 06:33:00,68.0,19.0,-100.00,WSW,255,4.0,8.0,15,-99.99,,,0.00,1.000000,,2013-07-08 13:33:00,
2013-07-08 06:42:00,68.0,19.0,-100.00,WSW,255,4.0,8.0,15,-99.99,,,0.00,1.000000,,2013-07-08 13:42:00,
2013-07-08 09:51:00,87.0,24.0,-100.00,NE,51,6.0,16.0,10,-99.99,,,0.00,825.000000,,2013-07-08 16:51:00,
2013-07-08 10:35:00,87.0,24.0,-100.00,NE,51,6.0,16.0,10,-99.99,,,0.00,825.000000,,2013-07-08 17:35:00,
2013-07-08 10:44:00,87.0,24.0,-100.00,NE,51,6.0,16.0,10,-99.99,,,0.00,825.000000,,2013-07-08 17:44:00,
2013-07-08 10:51:00,87.0,19.0,-100.00,SSW,199,8.0,17.0,8,0.00,,,0.00,1012.000000,,2013-07-08 17:51:00,
2013-07-08 11:27:00,87.0,19.0,-100.00,SSW,199,8.0,17.0,8,0.00,,,0.00,1012.000000,,2013-07-08 18:27:00,
2013-07-08 11:36:00,87.0,19.0,-100.00,SSW,199,8.0,17.0,8,0.00,,,0.00,1012.000000,,2013-07-08 18:36:00,
2013-07-08 11:45:00,87.0,19.0,-100.00,SSW,199,8.0,17.0,8,0.00,,,0.00,1012.000000,,2013-07-08 18:45:00,
2013-07-08 11:51:00,86.0,15.0,-100.00,SE,137,11.0,20.0,7,0.00,,,0.00,1146.000000,,2013-07-08 18:51:00,
2013-07-08 12:26:00,86.0,15.0,-100.00,SE,137,11.0,20.0,7,0.00,,,0.00,1146.000000,,2013-07-08 19:26:00,
2013-07-08 13:25:00,89.0,17.0,-100.00,SE,127,9.0,23.0,7,0.00,,,0.00,1234.000000,,2013-07-08 20:25:00,
2013-07-08 13:36:00,89.0,17.0,-100.00,SE,127,9.0,23.0,7,0.00,,,0.00,1234.000000,,2013-07-08 20:36:00,
2013-07-08 13:51:00,87.0,19.0,-100.00,SW,236,13.0,26.0,8,0.00,,,0.00,1171.000000,,2013-07-08 20:51:00,
2013-07-08 14:26:00,87.0,19.0,-100.00,SW,236,13.0,26.0,8,0.00,,,0.00,1171.000000,,2013-07-08 21:26:00,
2013-07-08 14:51:00,88.0,25.0,-100.00,WSW,248,19.0,39.0,10,0.00,,,0.00,889.000000,,2013-07-08 21:51:00,
2013-07-08 15:18:00,88.0,25.0,-100.00,WSW,248,19.0,39.0,10,0.00,,,0.00,889.000000,,2013-07-08 22:18:00,
2013-07-08 15:25:00,88.0,25.0,-100.00,WSW,248,19.0,39.0,10,0.00,,,0.00,889.000000,,2013-07-08 22:25:00,
2013-07-08 15:37:00,88.0,25.0,-100.00,WSW,248,19.0,39.0,10,0.00,,,0.00,889.000000,,2013-07-08 22:37:00,
2013-07-08 15:46:00,88.0,25.0,-100.00,WSW,248,19.0,39.0,10,0.00,,,0.00,889.000000,,2013-07-08 22:46:00,
2013-07-08 15:51:00,86.0,21.0,-100.00,WNW,298,5.0,35.0,9,0.00,,,0.00,539.000000,,2013-07-08 22:51:00,
2013-07-08 16:27:00,86.0,21.0,-100.00,WNW,298,5.0,35.0,9,0.00,,,0.00,539.000000,,2013-07-08 23:27:00,
2013-07-08 16:37:00,86.0,21.0,-100.00,WNW,298,5.0,35.0,9,0.00,,,0.00,539.000000,,2013-07-08 23:37:00,
2013-07-08 16:46:00,86.0,21.0,-100.00,WNW,298,5.0,35.0,9,0.00,,,0.00,539.000000,,2013-07-08 23:46:00,
2013-07-08 16:51:00,85.0,29.0,-100.00,SW,224,15.0,31.0,13,0.00,,,0.00,620.000000,,2013-07-08 23:51:00,
2013-07-08 17:26:00,85.0,29.0,-100.00,SW,224,15.0,31.0,13,0.00,,,0.00,620.000000,,2013-07-09 00:26:00,
2013-07-08 17:45:00,85.0,29.0,-100.00,SW,224,15.0,31.0,13,0.00,,,0.00,620.000000,,2013-07-09 00:45:00,
2013-07-08 18:51:00,84.0,31.0,-100.00,WSW,254,10.0,22.0,15,0.00,,,0.00,47.000000,,2013-07-09 01:51:00,
2013-07-08 19:25:00,84.0,31.0,-100.00,WSW,254,10.0,22.0,15,0.00,,,0.00,47.000000,,2013-07-09 02:25:00,
2013-07-08 19:37:00,84.0,31.0,-100.00,WSW,254,10.0,22.0,15,0.00,,,0.00,47.000000,,2013-07-09 02:37:00,
2013-07-08 19:46:00,84.0,31.0,-100.00,WSW,254,10.0,22.0,15,0.00,,,0.00,47.000000,,2013-07-09 02:46:00,
2013-07-08 19:51:00,80.0,27.0,-100.00,WSW,243,9.0,18.0,14,0.00,,,0.00,65.000000,,2013-07-09 02:51:00,
2013-07-08 20:17:00,80.0,27.0,-100.00,WSW,243,9.0,18.0,14,0.00,,,0.00,65.000000,,2013-07-09 03:17:00,
2013-07-08 20:51:00,78.0,21.0,-100.00,WSW,241,14.0,19.0,12,0.00,,,0.00,2.000000,,2013-07-09 03:51:00,
2013-07-08 21:11:00,78.0,21.0,-100.00,WSW,241,14.0,19.0,12,0.00,,,0.00,2.000000,,2013-07-09 04:11:00,
2013-07-08 21:22:00,78.0,21.0,-100.00,WSW,241,14.0,19.0,12,0.00,,,0.00,2.000000,,2013-07-09 04:22:00,
2013-07-08 21:33:00,78.0,21.0,-100.00,WSW,241,14.0,19.0,12,0.00,,,0.00,2.000000,,2013-07-09 04:33:00,
2013-07-08 21:42:00,78.0,21.0,-100.00,WSW,241,14.0,19.0,12,0.00,,,0.00,2.000000,,2013-07-09 04:42:00,
2013-07-08 22:51:00,71.0,18.0,-100.00,NNE,22,0.0,16.0,13,-99.99,,,0.00,0.000000,,2013-07-09 05:51:00,